sensor_id;sensor_type;location;lat;lon;timestamp;pressure;altitude;pressure_sealevel;temperature;humidity
20889;BME280;10604;51.976;7.594;2024-01-07T00:00:22;100817.69;;;17.81;34.90
20889;BME280;10604;51.976;7.594;2024-01-07T00:02:48;100821.88;;;18.15;34.39
20889;BME280;10604;51.976;7.594;2024-01-07T00:05:13;100826.91;;;17.75;34.96
20889;BME280;10604;51.976;7.594;2024-01-07T00:07:38;100832.00;;;17.17;35.28
20889;BME280;10604;51.976;7.594;2024-01-07T00:10:04;100832.69;;;16.89;36.07
20889;BME280;10604;51.976;7.594;2024-01-07T00:12:30;100834.91;;;17.28;35.72
20889;BME280;10604;51.976;7.594;2024-01-07T00:14:55;100839.19;;;17.78;34.92
20889;BME280;10604;51.976;7.594;2024-01-07T00:17:21;100836.47;;;17.01;35.88
20889;BME280;10604;51.976;7.594;2024-01-07T00:19:46;100848.28;;;16.79;36.37
20889;BME280;10604;51.976;7.594;2024-01-07T00:22:11;100844.72;;;17.75;35.03
20889;BME280;10604;51.976;7.594;2024-01-07T00:24:36;100843.78;;;17.76;34.99
20889;BME280;10604;51.976;7.594;2024-01-07T00:27:01;100848.16;;;17.77;34.67
20889;BME280;10604;51.976;7.594;2024-01-07T00:29:27;100847.50;;;17.73;34.90
20889;BME280;10604;51.976;7.594;2024-01-07T00:31:52;100846.00;;;18.13;34.52
20889;BME280;10604;51.976;7.594;2024-01-07T00:34:17;100856.50;;;17.71;34.83
20889;BME280;10604;51.976;7.594;2024-01-07T00:36:42;100851.94;;;17.88;34.83
20889;BME280;10604;51.976;7.594;2024-01-07T00:39:07;100856.09;;;17.47;35.18
20889;BME280;10604;51.976;7.594;2024-01-07T00:41:33;100853.84;;;17.23;35.72
20889;BME280;10604;51.976;7.594;2024-01-07T00:43:58;100859.38;;;17.68;34.80
20889;BME280;10604;51.976;7.594;2024-01-07T00:46:23;100863.81;;;17.20;35.03
20889;BME280;10604;51.976;7.594;2024-01-07T00:48:48;100871.00;;;17.67;35.03
20889;BME280;10604;51.976;7.594;2024-01-07T00:51:14;100862.44;;;17.44;34.98
20889;BME280;10604;51.976;7.594;2024-01-07T00:53:39;100866.25;;;17.72;34.53
20889;BME280;10604;51.976;7.594;2024-01-07T00:56:04;100865.19;;;17.27;34.85
20889;BME280;10604;51.976;7.594;2024-01-07T00:58:30;100870.84;;;16.90;35.84
20889;BME280;10604;51.976;7.594;2024-01-07T01:00:55;100877.13;;;16.71;36.10
20889;BME280;10604;51.976;7.594;2024-01-07T01:03:20;100874.16;;;17.26;35.19
20889;BME280;10604;51.976;7.594;2024-01-07T01:05:46;100880.69;;;17.05;35.31
20889;BME280;10604;51.976;7.594;2024-01-07T01:08:11;100887.22;;;17.15;35.39
20889;BME280;10604;51.976;7.594;2024-01-07T01:10:36;100883.59;;;17.16;35.49
20889;BME280;10604;51.976;7.594;2024-01-07T01:13:01;100890.19;;;16.60;35.90
20889;BME280;10604;51.976;7.594;2024-01-07T01:15:27;100894.53;;;16.78;36.08
20889;BME280;10604;51.976;7.594;2024-01-07T01:17:52;100888.44;;;16.92;35.88
20889;BME280;10604;51.976;7.594;2024-01-07T01:20:17;100903.38;;;16.79;35.91
20889;BME280;10604;51.976;7.594;2024-01-07T01:22:42;100897.78;;;16.68;35.93
20889;BME280;10604;51.976;7.594;2024-01-07T01:25:08;100904.03;;;16.67;35.93
20889;BME280;10604;51.976;7.594;2024-01-07T01:27:33;100910.06;;;16.53;36.13
20889;BME280;10604;51.976;7.594;2024-01-07T01:29:58;100912.09;;;16.48;36.06
20889;BME280;10604;51.976;7.594;2024-01-07T01:32:23;100920.75;;;16.34;36.12
20889;BME280;10604;51.976;7.594;2024-01-07T01:34:48;100921.47;;;16.03;36.91
20889;BME280;10604;51.976;7.594;2024-01-07T01:37:14;100924.91;;;16.05;37.17
20889;BME280;10604;51.976;7.594;2024-01-07T01:39:42;100927.97;;;15.98;37.08
20889;BME280;10604;51.976;7.594;2024-01-07T01:42:07;100927.28;;;16.29;36.84
20889;BME280;10604;51.976;7.594;2024-01-07T01:44:33;100926.72;;;16.22;36.62
20889;BME280;10604;51.976;7.594;2024-01-07T01:46:58;100929.06;;;15.56;37.38
20889;BME280;10604;51.976;7.594;2024-01-07T01:49:25;100934.28;;;15.95;36.83
20889;BME280;10604;51.976;7.594;2024-01-07T01:51:50;100925.66;;;16.26;36.18
20889;BME280;10604;51.976;7.594;2024-01-07T01:54:17;100937.75;;;15.97;36.64
20889;BME280;10604;51.976;7.594;2024-01-07T01:56:43;100936.75;;;15.81;36.92
20889;BME280;10604;51.976;7.594;2024-01-07T01:59:09;100943.09;;;16.32;36.18
20889;BME280;10604;51.976;7.594;2024-01-07T02:01:34;100941.34;;;15.96;36.85
20889;BME280;10604;51.976;7.594;2024-01-07T02:03:59;100943.94;;;15.98;36.73
20889;BME280;10604;51.976;7.594;2024-01-07T02:06:25;100943.50;;;15.51;37.48
20889;BME280;10604;51.976;7.594;2024-01-07T02:08:50;100956.69;;;16.09;36.50
20889;BME280;10604;51.976;7.594;2024-01-07T02:11:16;100954.44;;;15.63;36.78
20889;BME280;10604;51.976;7.594;2024-01-07T02:13:42;100957.22;;;16.34;36.07
20889;BME280;10604;51.976;7.594;2024-01-07T02:16:07;100959.56;;;16.40;36.15
20889;BME280;10604;51.976;7.594;2024-01-07T02:18:32;100963.31;;;15.44;36.97
20889;BME280;10604;51.976;7.594;2024-01-07T02:20:57;100974.13;;;15.78;36.66
20889;BME280;10604;51.976;7.594;2024-01-07T02:23:23;100965.47;;;15.92;36.65
20889;BME280;10604;51.976;7.594;2024-01-07T02:25:48;100968.13;;;16.11;36.36
20889;BME280;10604;51.976;7.594;2024-01-07T02:28:13;100970.09;;;15.51;36.82
20889;BME280;10604;51.976;7.594;2024-01-07T02:30:38;100977.16;;;15.89;36.55
20889;BME280;10604;51.976;7.594;2024-01-07T02:33:03;100974.53;;;15.50;36.59
20889;BME280;10604;51.976;7.594;2024-01-07T02:35:29;100984.09;;;15.56;37.06
20889;BME280;10604;51.976;7.594;2024-01-07T02:37:54;100991.66;;;14.85;37.90
20889;BME280;10604;51.976;7.594;2024-01-07T02:40:19;100983.06;;;14.99;37.54
20889;BME280;10604;51.976;7.594;2024-01-07T02:42:44;100973.31;;;15.20;37.19
20889;BME280;10604;51.976;7.594;2024-01-07T02:45:10;100983.09;;;14.79;37.95
20889;BME280;10604;51.976;7.594;2024-01-07T02:47:35;100983.78;;;15.62;36.95
20889;BME280;10604;51.976;7.594;2024-01-07T02:50:00;100989.09;;;15.81;36.59
20889;BME280;10604;51.976;7.594;2024-01-07T02:52:25;100993.19;;;15.69;36.79
20889;BME280;10604;51.976;7.594;2024-01-07T02:54:50;100993.22;;;15.49;36.59
20889;BME280;10604;51.976;7.594;2024-01-07T02:57:16;100992.22;;;15.33;36.71
20889;BME280;10604;51.976;7.594;2024-01-07T02:59:41;101004.56;;;15.34;37.06
20889;BME280;10604;51.976;7.594;2024-01-07T03:02:06;101007.91;;;14.78;38.12
20889;BME280;10604;51.976;7.594;2024-01-07T03:04:31;100997.59;;;15.70;36.33
20889;BME280;10604;51.976;7.594;2024-01-07T03:06:56;101002.53;;;15.59;36.67
20889;BME280;10604;51.976;7.594;2024-01-07T03:09:22;101008.03;;;16.11;36.19
20889;BME280;10604;51.976;7.594;2024-01-07T03:11:47;101009.16;;;15.49;36.70
20889;BME280;10604;51.976;7.594;2024-01-07T03:14:12;101003.84;;;15.49;36.25
20889;BME280;10604;51.976;7.594;2024-01-07T03:16:37;101002.38;;;15.23;37.19
20889;BME280;10604;51.976;7.594;2024-01-07T03:19:02;101015.66;;;14.84;37.97
20889;BME280;10604;51.976;7.594;2024-01-07T03:21:29;101018.41;;;15.01;37.42
20889;BME280;10604;51.976;7.594;2024-01-07T03:23:55;101013.56;;;15.70;36.30
20889;BME280;10604;51.976;7.594;2024-01-07T03:26:20;101018.00;;;15.88;36.15
20889;BME280;10604;51.976;7.594;2024-01-07T03:28:45;101012.88;;;15.65;36.08
20889;BME280;10604;51.976;7.594;2024-01-07T03:31:11;101025.84;;;15.34;36.75
20889;BME280;10604;51.976;7.594;2024-01-07T03:33:37;101026.47;;;15.39;36.85
20889;BME280;10604;51.976;7.594;2024-01-07T03:36:09;101028.38;;;15.16;37.04
20889;BME280;10604;51.976;7.594;2024-01-07T03:38:35;101027.41;;;15.38;36.83
20889;BME280;10604;51.976;7.594;2024-01-07T03:41:00;101035.34;;;15.19;36.79
20889;BME280;10604;51.976;7.594;2024-01-07T03:43:25;101031.00;;;15.37;36.97
20889;BME280;10604;51.976;7.594;2024-01-07T03:45:51;101037.63;;;15.47;36.38
20889;BME280;10604;51.976;7.594;2024-01-07T03:48:16;101041.53;;;14.99;37.42
20889;BME280;10604;51.976;7.594;2024-01-07T03:50:41;101040.94;;;15.52;36.85
20889;BME280;10604;51.976;7.594;2024-01-07T03:53:06;101040.28;;;15.86;36.11
20889;BME280;10604;51.976;7.594;2024-01-07T03:55:32;101042.59;;;15.15;36.74
20889;BME280;10604;51.976;7.594;2024-01-07T03:57:57;101048.00;;;14.72;37.94
20889;BME280;10604;51.976;7.594;2024-01-07T04:00:22;101053.22;;;14.95;37.65
20889;BME280;10604;51.976;7.594;2024-01-07T04:02:47;101052.94;;;14.81;37.19
20889;BME280;10604;51.976;7.594;2024-01-07T04:05:12;101055.75;;;14.98;37.50
20889;BME280;10604;51.976;7.594;2024-01-07T04:07:40;101051.84;;;15.46;36.51
20889;BME280;10604;51.976;7.594;2024-01-07T04:10:05;101060.97;;;15.79;36.37
20889;BME280;10604;51.976;7.594;2024-01-07T04:12:30;101059.78;;;15.47;36.26
20889;BME280;10604;51.976;7.594;2024-01-07T04:14:55;101063.47;;;15.04;37.02
20889;BME280;10604;51.976;7.594;2024-01-07T04:17:21;101069.91;;;15.19;36.90
20889;BME280;10604;51.976;7.594;2024-01-07T04:19:46;101069.44;;;15.09;36.87
20889;BME280;10604;51.976;7.594;2024-01-07T04:22:11;101069.53;;;15.47;36.35
20889;BME280;10604;51.976;7.594;2024-01-07T04:24:36;101079.19;;;15.09;36.82
20889;BME280;10604;51.976;7.594;2024-01-07T04:27:05;101079.06;;;15.12;37.06
20889;BME280;10604;51.976;7.594;2024-01-07T04:29:30;101071.59;;;14.79;37.42
20889;BME280;10604;51.976;7.594;2024-01-07T04:31:55;101076.19;;;15.16;36.71
20889;BME280;10604;51.976;7.594;2024-01-07T04:34:20;101079.28;;;14.43;37.73
20889;BME280;10604;51.976;7.594;2024-01-07T04:36:46;101085.38;;;15.29;37.14
20889;BME280;10604;51.976;7.594;2024-01-07T04:39:12;101091.94;;;15.41;36.21
20889;BME280;10604;51.976;7.594;2024-01-07T04:41:38;101087.50;;;14.14;37.73
20889;BME280;10604;51.976;7.594;2024-01-07T04:44:03;101099.72;;;15.46;36.31
20889;BME280;10604;51.976;7.594;2024-01-07T04:46:28;101095.19;;;15.27;36.70
20889;BME280;10604;51.976;7.594;2024-01-07T04:48:53;101094.50;;;14.82;36.97
20889;BME280;10604;51.976;7.594;2024-01-07T04:51:18;101101.03;;;14.53;37.51
20889;BME280;10604;51.976;7.594;2024-01-07T04:53:44;101096.00;;;15.09;36.72
20889;BME280;10604;51.976;7.594;2024-01-07T04:56:09;101095.84;;;15.73;36.05
20889;BME280;10604;51.976;7.594;2024-01-07T04:58:34;101101.78;;;15.59;36.17
20889;BME280;10604;51.976;7.594;2024-01-07T05:00:59;101100.25;;;15.34;36.45
20889;BME280;10604;51.976;7.594;2024-01-07T05:03:24;101109.69;;;15.61;35.99
20889;BME280;10604;51.976;7.594;2024-01-07T05:05:50;101115.91;;;14.99;36.84
20889;BME280;10604;51.976;7.594;2024-01-07T05:08:15;101106.44;;;15.93;35.75
20889;BME280;10604;51.976;7.594;2024-01-07T05:10:40;101124.09;;;15.76;35.83
20889;BME280;10604;51.976;7.594;2024-01-07T05:13:05;101123.75;;;14.60;37.10
20889;BME280;10604;51.976;7.594;2024-01-07T05:15:31;101119.91;;;15.29;36.16
20889;BME280;10604;51.976;7.594;2024-01-07T05:17:56;101124.00;;;15.97;35.77
20889;BME280;10604;51.976;7.594;2024-01-07T05:20:22;101122.78;;;15.65;35.24
20889;BME280;10604;51.976;7.594;2024-01-07T05:22:47;101126.66;;;15.97;35.28
20889;BME280;10604;51.976;7.594;2024-01-07T05:25:12;101133.06;;;16.31;34.63
20889;BME280;10604;51.976;7.594;2024-01-07T05:27:37;101134.34;;;16.41;34.33
20889;BME280;10604;51.976;7.594;2024-01-07T05:30:03;101137.59;;;15.71;35.36
20889;BME280;10604;51.976;7.594;2024-01-07T05:32:28;101141.72;;;15.17;35.84
20889;BME280;10604;51.976;7.594;2024-01-07T05:34:53;101152.72;;;15.49;35.58
20889;BME280;10604;51.976;7.594;2024-01-07T05:37:18;101154.78;;;15.22;35.96
20889;BME280;10604;51.976;7.594;2024-01-07T05:39:44;101152.63;;;15.32;35.45
20889;BME280;10604;51.976;7.594;2024-01-07T05:42:09;101164.72;;;15.18;35.07
20889;BME280;10604;51.976;7.594;2024-01-07T05:44:34;101156.72;;;14.55;35.95
20889;BME280;10604;51.976;7.594;2024-01-07T05:47:00;101164.28;;;15.07;35.40
20889;BME280;10604;51.976;7.594;2024-01-07T05:49:25;101168.69;;;15.49;35.28
20889;BME280;10604;51.976;7.594;2024-01-07T05:51:50;101179.78;;;15.60;34.60
20889;BME280;10604;51.976;7.594;2024-01-07T05:54:15;101182.41;;;14.54;35.91
20889;BME280;10604;51.976;7.594;2024-01-07T05:56:41;101186.47;;;14.16;36.47
20889;BME280;10604;51.976;7.594;2024-01-07T05:59:06;101172.75;;;14.73;35.93
20889;BME280;10604;51.976;7.594;2024-01-07T06:01:32;101178.22;;;14.70;35.58
20889;BME280;10604;51.976;7.594;2024-01-07T06:03:57;101191.53;;;14.69;35.99
20889;BME280;10604;51.976;7.594;2024-01-07T06:06:22;101199.66;;;14.42;35.79
20889;BME280;10604;51.976;7.594;2024-01-07T06:08:47;101202.75;;;14.54;36.03
20889;BME280;10604;51.976;7.594;2024-01-07T06:11:12;101202.28;;;14.42;35.79
20889;BME280;10604;51.976;7.594;2024-01-07T06:13:43;101193.13;;;14.73;35.86
20889;BME280;10604;51.976;7.594;2024-01-07T06:16:08;101198.81;;;14.85;35.66
20889;BME280;10604;51.976;7.594;2024-01-07T06:18:34;101210.38;;;15.48;34.87
20889;BME280;10604;51.976;7.594;2024-01-07T06:20:59;101209.03;;;15.60;34.58
20889;BME280;10604;51.976;7.594;2024-01-07T06:23:24;101208.91;;;15.63;34.79
20889;BME280;10604;51.976;7.594;2024-01-07T06:25:49;101221.25;;;15.00;35.05
20889;BME280;10604;51.976;7.594;2024-01-07T06:28:14;101225.31;;;15.51;35.26
20889;BME280;10604;51.976;7.594;2024-01-07T06:30:40;101229.44;;;15.38;35.56
20889;BME280;10604;51.976;7.594;2024-01-07T06:33:05;101228.91;;;15.50;35.17
20889;BME280;10604;51.976;7.594;2024-01-07T06:35:30;101229.22;;;15.42;35.40
20889;BME280;10604;51.976;7.594;2024-01-07T06:37:55;101238.81;;;15.68;34.60
20889;BME280;10604;51.976;7.594;2024-01-07T06:40:21;101241.59;;;15.65;34.84
20889;BME280;10604;51.976;7.594;2024-01-07T06:42:47;101252.56;;;15.14;35.78
20889;BME280;10604;51.976;7.594;2024-01-07T06:45:13;101247.75;;;15.23;35.53
20889;BME280;10604;51.976;7.594;2024-01-07T06:47:40;101253.63;;;15.32;34.86
20889;BME280;10604;51.976;7.594;2024-01-07T06:50:05;101253.41;;;15.36;35.21
20889;BME280;10604;51.976;7.594;2024-01-07T06:52:30;101269.34;;;14.71;35.40
20889;BME280;10604;51.976;7.594;2024-01-07T06:54:56;101261.34;;;14.94;35.07
20889;BME280;10604;51.976;7.594;2024-01-07T06:57:21;101271.09;;;15.59;34.89
20889;BME280;10604;51.976;7.594;2024-01-07T06:59:46;101276.78;;;14.84;35.46
20889;BME280;10604;51.976;7.594;2024-01-07T07:02:12;101284.94;;;15.67;34.49
20889;BME280;10604;51.976;7.594;2024-01-07T07:04:37;101284.41;;;15.79;33.97
20889;BME280;10604;51.976;7.594;2024-01-07T07:07:02;101299.41;;;15.16;34.81
20889;BME280;10604;51.976;7.594;2024-01-07T07:09:27;101308.47;;;15.12;34.79
20889;BME280;10604;51.976;7.594;2024-01-07T07:11:52;101311.63;;;14.77;35.26
20889;BME280;10604;51.976;7.594;2024-01-07T07:14:18;101313.41;;;14.53;35.38
20889;BME280;10604;51.976;7.594;2024-01-07T07:16:43;101318.53;;;14.08;35.91
20889;BME280;10604;51.976;7.594;2024-01-07T07:19:08;101318.38;;;15.07;35.30
20889;BME280;10604;51.976;7.594;2024-01-07T07:21:33;101316.75;;;15.70;34.38
20889;BME280;10604;51.976;7.594;2024-01-07T07:23:58;101326.38;;;15.73;34.04
20889;BME280;10604;51.976;7.594;2024-01-07T07:26:24;101336.44;;;14.76;35.29
20889;BME280;10604;51.976;7.594;2024-01-07T07:28:49;101334.22;;;14.40;35.70
20889;BME280;10604;51.976;7.594;2024-01-07T07:31:14;101352.81;;;14.64;35.51
20889;BME280;10604;51.976;7.594;2024-01-07T07:33:40;101347.69;;;14.82;35.09
20889;BME280;10604;51.976;7.594;2024-01-07T07:36:05;101355.59;;;13.85;35.94
20889;BME280;10604;51.976;7.594;2024-01-07T07:38:30;101368.63;;;14.17;35.60
20889;BME280;10604;51.976;7.594;2024-01-07T07:40:56;101371.84;;;13.48;36.87
20889;BME280;10604;51.976;7.594;2024-01-07T07:43:21;101379.19;;;13.09;36.93
20889;BME280;10604;51.976;7.594;2024-01-07T07:45:46;101384.41;;;13.12;37.22
20889;BME280;10604;51.976;7.594;2024-01-07T07:48:11;101386.88;;;13.47;36.75
20889;BME280;10604;51.976;7.594;2024-01-07T07:50:37;101388.31;;;13.85;36.52
20889;BME280;10604;51.976;7.594;2024-01-07T07:53:02;101399.88;;;13.83;36.45
20889;BME280;10604;51.976;7.594;2024-01-07T07:55:27;101400.00;;;13.50;36.19
20889;BME280;10604;51.976;7.594;2024-01-07T07:57:53;101411.38;;;14.08;35.67
20889;BME280;10604;51.976;7.594;2024-01-07T08:00:18;101414.44;;;13.42;36.72
20889;BME280;10604;51.976;7.594;2024-01-07T08:02:44;101412.66;;;13.96;36.10
20889;BME280;10604;51.976;7.594;2024-01-07T08:05:09;101413.63;;;14.46;35.10
20889;BME280;10604;51.976;7.594;2024-01-07T08:07:34;101413.41;;;14.00;35.67
20889;BME280;10604;51.976;7.594;2024-01-07T08:10:00;101415.34;;;14.21;34.85
20889;BME280;10604;51.976;7.594;2024-01-07T08:12:25;101432.75;;;13.77;35.65
20889;BME280;10604;51.976;7.594;2024-01-07T08:14:50;101429.03;;;13.83;35.27
20889;BME280;10604;51.976;7.594;2024-01-07T08:17:15;101428.50;;;13.71;35.62
20889;BME280;10604;51.976;7.594;2024-01-07T08:19:42;101421.44;;;14.25;34.84
20889;BME280;10604;51.976;7.594;2024-01-07T08:22:07;101433.41;;;14.36;34.39
20889;BME280;10604;51.976;7.594;2024-01-07T08:24:33;101434.66;;;14.26;34.31
20889;BME280;10604;51.976;7.594;2024-01-07T08:26:58;101444.13;;;14.84;34.20
20889;BME280;10604;51.976;7.594;2024-01-07T08:29:23;101444.72;;;14.68;34.14
20889;BME280;10604;51.976;7.594;2024-01-07T08:31:49;101448.22;;;13.35;35.24
20889;BME280;10604;51.976;7.594;2024-01-07T08:34:14;101445.69;;;14.40;34.79
20889;BME280;10604;51.976;7.594;2024-01-07T08:36:40;101451.34;;;13.76;34.88
20889;BME280;10604;51.976;7.594;2024-01-07T08:39:06;101466.78;;;13.91;35.24
20889;BME280;10604;51.976;7.594;2024-01-07T08:41:31;101465.28;;;13.54;34.97
20889;BME280;10604;51.976;7.594;2024-01-07T08:43:56;101461.47;;;13.91;34.54
20889;BME280;10604;51.976;7.594;2024-01-07T08:46:21;101462.41;;;14.69;33.98
20889;BME280;10604;51.976;7.594;2024-01-07T08:48:47;101465.22;;;14.11;34.03
20889;BME280;10604;51.976;7.594;2024-01-07T08:51:12;101466.53;;;14.25;34.39
20889;BME280;10604;51.976;7.594;2024-01-07T08:53:37;101472.75;;;13.69;34.98
20889;BME280;10604;51.976;7.594;2024-01-07T08:56:03;101485.91;;;13.43;35.59
20889;BME280;10604;51.976;7.594;2024-01-07T08:58:28;101498.69;;;13.29;35.58
20889;BME280;10604;51.976;7.594;2024-01-07T09:00:53;101488.69;;;13.08;35.87
20889;BME280;10604;51.976;7.594;2024-01-07T09:03:18;101480.41;;;13.79;34.39
20889;BME280;10604;51.976;7.594;2024-01-07T09:05:44;101494.72;;;13.73;34.48
20889;BME280;10604;51.976;7.594;2024-01-07T09:08:09;101500.84;;;13.47;34.65
20889;BME280;10604;51.976;7.594;2024-01-07T09:10:36;101512.72;;;14.19;33.68
20889;BME280;10604;51.976;7.594;2024-01-07T09:13:02;101501.28;;;14.17;33.87
20889;BME280;10604;51.976;7.594;2024-01-07T09:15:28;101514.63;;;13.58;34.35
20889;BME280;10604;51.976;7.594;2024-01-07T09:17:53;101522.34;;;13.66;33.77
20889;BME280;10604;51.976;7.594;2024-01-07T09:20:18;101513.38;;;13.99;33.51
20889;BME280;10604;51.976;7.594;2024-01-07T09:22:44;101519.34;;;13.78;33.14
20889;BME280;10604;51.976;7.594;2024-01-07T09:25:10;101523.59;;;13.84;33.99
20889;BME280;10604;51.976;7.594;2024-01-07T09:27:36;101524.13;;;14.21;33.18
20889;BME280;10604;51.976;7.594;2024-01-07T09:30:01;101535.66;;;13.35;34.16
20889;BME280;10604;51.976;7.594;2024-01-07T09:32:26;101544.16;;;13.46;34.14
20889;BME280;10604;51.976;7.594;2024-01-07T09:34:52;101542.28;;;13.50;34.45
20889;BME280;10604;51.976;7.594;2024-01-07T09:37:17;101558.50;;;13.68;34.05
20889;BME280;10604;51.976;7.594;2024-01-07T09:39:43;101560.16;;;13.72;33.84
20889;BME280;10604;51.976;7.594;2024-01-07T09:42:16;101557.47;;;13.11;33.94
20889;BME280;10604;51.976;7.594;2024-01-07T09:44:42;101560.13;;;13.43;33.99
20889;BME280;10604;51.976;7.594;2024-01-07T09:47:10;101555.38;;;13.56;33.89
20889;BME280;10604;51.976;7.594;2024-01-07T09:49:35;101559.81;;;12.90;34.07
20889;BME280;10604;51.976;7.594;2024-01-07T09:52:00;101573.66;;;12.31;34.48
20889;BME280;10604;51.976;7.594;2024-01-07T09:54:28;101573.22;;;13.79;33.67
20889;BME280;10604;51.976;7.594;2024-01-07T09:57:00;101573.59;;;13.02;34.31
20889;BME280;10604;51.976;7.594;2024-01-07T09:59:29;101578.41;;;13.52;34.23
20889;BME280;10604;51.976;7.594;2024-01-07T10:01:55;101580.56;;;13.70;33.43
20889;BME280;10604;51.976;7.594;2024-01-07T10:04:20;101575.84;;;13.18;34.10
20889;BME280;10604;51.976;7.594;2024-01-07T10:06:45;101580.22;;;13.21;33.77
20889;BME280;10604;51.976;7.594;2024-01-07T10:09:14;101588.47;;;13.41;33.52
20889;BME280;10604;51.976;7.594;2024-01-07T10:11:40;101583.94;;;13.14;33.79
20889;BME280;10604;51.976;7.594;2024-01-07T10:14:05;101587.75;;;13.95;32.79
20889;BME280;10604;51.976;7.594;2024-01-07T10:16:30;101592.00;;;14.00;33.24
20889;BME280;10604;51.976;7.594;2024-01-07T10:18:57;101596.19;;;13.80;32.73
20889;BME280;10604;51.976;7.594;2024-01-07T10:21:22;101601.13;;;13.62;32.80
20889;BME280;10604;51.976;7.594;2024-01-07T10:23:47;101589.88;;;13.22;33.01
20889;BME280;10604;51.976;7.594;2024-01-07T10:26:12;101589.31;;;13.72;33.20
20889;BME280;10604;51.976;7.594;2024-01-07T10:28:38;101591.50;;;13.58;32.46
20889;BME280;10604;51.976;7.594;2024-01-07T10:31:05;101591.69;;;14.11;32.15
20889;BME280;10604;51.976;7.594;2024-01-07T10:33:31;101600.59;;;13.79;32.30
20889;BME280;10604;51.976;7.594;2024-01-07T10:36:00;101593.25;;;13.89;32.36
20889;BME280;10604;51.976;7.594;2024-01-07T10:38:26;101609.81;;;13.97;32.11
20889;BME280;10604;51.976;7.594;2024-01-07T10:40:52;101600.47;;;13.54;32.18
20889;BME280;10604;51.976;7.594;2024-01-07T10:43:17;101608.16;;;13.63;31.94
20889;BME280;10604;51.976;7.594;2024-01-07T10:45:44;101596.38;;;13.09;32.77
20889;BME280;10604;51.976;7.594;2024-01-07T10:48:17;101602.69;;;13.37;32.64
20889;BME280;10604;51.976;7.594;2024-01-07T10:50:43;101603.13;;;13.22;32.46
20889;BME280;10604;51.976;7.594;2024-01-07T10:53:10;101610.19;;;13.85;32.16
20889;BME280;10604;51.976;7.594;2024-01-07T10:55:37;101602.09;;;13.27;32.56
20889;BME280;10604;51.976;7.594;2024-01-07T10:58:03;101602.34;;;12.83;32.77
20889;BME280;10604;51.976;7.594;2024-01-07T11:00:29;101599.97;;;12.72;33.19
20889;BME280;10604;51.976;7.594;2024-01-07T11:03:12;101610.28;;;12.49;33.11
20889;BME280;10604;51.976;7.594;2024-01-07T11:05:49;101598.78;;;12.85;32.16
20889;BME280;10604;51.976;7.594;2024-01-07T11:11:05;101607.94;;;12.35;32.58
20889;BME280;10604;51.976;7.594;2024-01-07T11:13:38;101609.63;;;13.09;31.90
20889;BME280;10604;51.976;7.594;2024-01-07T11:16:07;101599.59;;;13.54;31.82
20889;BME280;10604;51.976;7.594;2024-01-07T11:18:54;101614.00;;;13.10;32.23
20889;BME280;10604;51.976;7.594;2024-01-07T11:21:22;101601.06;;;13.33;31.94
20889;BME280;10604;51.976;7.594;2024-01-07T11:23:49;101608.63;;;13.78;31.87
20889;BME280;10604;51.976;7.594;2024-01-07T11:26:15;101619.31;;;14.33;31.15
20889;BME280;10604;51.976;7.594;2024-01-07T11:28:44;101616.28;;;14.45;31.07
20889;BME280;10604;51.976;7.594;2024-01-07T11:31:09;101610.59;;;14.28;30.85
20889;BME280;10604;51.976;7.594;2024-01-07T11:33:38;101624.69;;;14.86;31.06
20889;BME280;10604;51.976;7.594;2024-01-07T11:36:06;101624.06;;;13.93;31.62
20889;BME280;10604;51.976;7.594;2024-01-07T11:38:33;101619.47;;;13.70;31.84
20889;BME280;10604;51.976;7.594;2024-01-07T11:40:58;101632.44;;;14.92;31.14
20889;BME280;10604;51.976;7.594;2024-01-07T11:43:25;101624.34;;;14.97;30.79
20889;BME280;10604;51.976;7.594;2024-01-07T11:45:50;101624.44;;;14.10;31.47
20889;BME280;10604;51.976;7.594;2024-01-07T11:48:16;101628.81;;;14.42;30.51
20889;BME280;10604;51.976;7.594;2024-01-07T11:50:42;101638.31;;;13.59;31.11
20889;BME280;10604;51.976;7.594;2024-01-07T11:53:07;101638.72;;;13.77;32.08
20889;BME280;10604;51.976;7.594;2024-01-07T11:55:34;101632.56;;;13.75;31.59
20889;BME280;10604;51.976;7.594;2024-01-07T11:58:01;101632.53;;;14.35;31.12
20889;BME280;10604;51.976;7.594;2024-01-07T12:00:27;101645.56;;;14.42;31.29
20889;BME280;10604;51.976;7.594;2024-01-07T12:02:55;101637.56;;;13.54;31.46
20889;BME280;10604;51.976;7.594;2024-01-07T12:05:20;101631.56;;;13.48;31.81
20889;BME280;10604;51.976;7.594;2024-01-07T12:07:45;101632.09;;;13.91;31.49
20889;BME280;10604;51.976;7.594;2024-01-07T12:10:11;101644.06;;;13.09;31.98
20889;BME280;10604;51.976;7.594;2024-01-07T12:12:37;101628.38;;;13.97;31.06
20889;BME280;10604;51.976;7.594;2024-01-07T12:15:03;101637.31;;;12.97;32.37
20889;BME280;10604;51.976;7.594;2024-01-07T12:17:29;101631.81;;;14.28;30.60
20889;BME280;10604;51.976;7.594;2024-01-07T12:19:56;101636.97;;;14.05;30.73
20889;BME280;10604;51.976;7.594;2024-01-07T12:22:21;101651.63;;;14.18;31.14
20889;BME280;10604;51.976;7.594;2024-01-07T12:24:46;101638.63;;;13.49;31.91
20889;BME280;10604;51.976;7.594;2024-01-07T12:27:12;101641.63;;;14.26;31.52
20889;BME280;10604;51.976;7.594;2024-01-07T12:29:39;101638.50;;;14.14;32.08
20889;BME280;10604;51.976;7.594;2024-01-07T12:32:05;101644.16;;;14.31;31.43
20889;BME280;10604;51.976;7.594;2024-01-07T12:34:30;101644.63;;;14.45;31.42
20889;BME280;10604;51.976;7.594;2024-01-07T12:36:55;101646.03;;;14.27;31.34
20889;BME280;10604;51.976;7.594;2024-01-07T12:39:21;101644.16;;;14.01;31.67
20889;BME280;10604;51.976;7.594;2024-01-07T12:41:46;101649.81;;;14.76;30.92
20889;BME280;10604;51.976;7.594;2024-01-07T12:44:12;101656.47;;;14.33;31.50